sensor_id;sensor_type;location;lat;lon;timestamp;P1;durP1;ratioP1;P2;durP2;ratioP2
39188;SDS011;24915;50.858;4.376;2023-04-24T00:01:17;33.13;;;17.40;;
39188;SDS011;24915;50.858;4.376;2023-04-24T00:03:44;32.30;;;16.35;;
39188;SDS011;24915;50.858;4.376;2023-04-24T00:06:10;37.55;;;17.38;;
39188;SDS011;24915;50.858;4.376;2023-04-24T00:08:36;35.72;;;17.58;;
39188;SDS011;24915;50.858;4.376;2023-04-24T00:11:02;35.10;;;16.65;;
39188;SDS011;24915;50.858;4.376;2023-04-24T00:13:29;38.10;;;16.63;;
39188;SDS011;24915;50.858;4.376;2023-04-24T00:15:55;39.75;;;16.15;;
39188;SDS011;24915;50.858;4.376;2023-04-24T00:18:21;35.10;;;17.23;;
39188;SDS011;24915;50.858;4.376;2023-04-24T00:20:47;37.28;;;16.92;;
39188;SDS011;24915;50.858;4.376;2023-04-24T00:23:13;32.17;;;16.60;;
39188;SDS011;24915;50.858;4.376;2023-04-24T00:25:39;39.53;;;18.50;;
39188;SDS011;24915;50.858;4.376;2023-04-24T00:28:05;38.17;;;16.80;;
39188;SDS011;24915;50.858;4.376;2023-04-24T00:30:31;33.03;;;17.08;;
39188;SDS011;24915;50.858;4.376;2023-04-24T00:32:57;32.40;;;16.75;;
39188;SDS011;24915;50.858;4.376;2023-04-24T00:35:24;32.22;;;16.17;;
39188;SDS011;24915;50.858;4.376;2023-04-24T00:37:51;31.25;;;16.63;;
39188;SDS011;24915;50.858;4.376;2023-04-24T00:40:17;34.22;;;18.02;;
39188;SDS011;24915;50.858;4.376;2023-04-24T00:42:43;40.40;;;16.63;;
39188;SDS011;24915;50.858;4.376;2023-04-24T00:45:09;35.72;;;18.25;;
39188;SDS011;24915;50.858;4.376;2023-04-24T00:47:36;36.58;;;18.33;;
39188;SDS011;24915;50.858;4.376;2023-04-24T00:50:03;31.58;;;17.92;;
39188;SDS011;24915;50.858;4.376;2023-04-24T00:52:29;31.42;;;17.00;;
39188;SDS011;24915;50.858;4.376;2023-04-24T00:54:57;40.08;;;16.85;;
39188;SDS011;24915;50.858;4.376;2023-04-24T00:57:23;31.48;;;16.17;;
39188;SDS011;24915;50.858;4.376;2023-04-24T00:59:50;39.75;;;18.23;;
39188;SDS011;24915;50.858;4.376;2023-04-24T01:02:17;36.17;;;18.83;;
39188;SDS011;24915;50.858;4.376;2023-04-24T01:04:43;33.00;;;18.75;;
39188;SDS011;24915;50.858;4.376;2023-04-24T01:07:09;37.97;;;17.42;;
39188;SDS011;24915;50.858;4.376;2023-04-24T01:09:42;39.33;;;18.38;;
39188;SDS011;24915;50.858;4.376;2023-04-24T01:12:12;33.65;;;17.13;;
39188;SDS011;24915;50.858;4.376;2023-04-24T01:14:38;35.15;;;17.10;;
39188;SDS011;24915;50.858;4.376;2023-04-24T01:17:04;32.97;;;17.85;;
39188;SDS011;24915;50.858;4.376;2023-04-24T01:19:30;31.85;;;17.05;;
39188;SDS011;24915;50.858;4.376;2023-04-24T01:21:57;35.20;;;18.85;;
39188;SDS011;24915;50.858;4.376;2023-04-24T01:24:24;31.38;;;17.58;;
39188;SDS011;24915;50.858;4.376;2023-04-24T01:26:50;36.80;;;18.80;;
39188;SDS011;24915;50.858;4.376;2023-04-24T01:29:16;31.30;;;17.48;;
39188;SDS011;24915;50.858;4.376;2023-04-24T01:31:42;37.95;;;18.77;;
39188;SDS011;24915;50.858;4.376;2023-04-24T01:34:08;34.53;;;17.88;;
39188;SDS011;24915;50.858;4.376;2023-04-24T01:36:35;29.60;;;16.67;;
39188;SDS011;24915;50.858;4.376;2023-04-24T01:39:01;27.45;;;16.65;;
39188;SDS011;24915;50.858;4.376;2023-04-24T01:41:28;33.20;;;15.90;;
39188;SDS011;24915;50.858;4.376;2023-04-24T01:43:55;23.60;;;14.63;;
39188;SDS011;24915;50.858;4.376;2023-04-24T01:46:22;24.33;;;14.88;;
39188;SDS011;24915;50.858;4.376;2023-04-24T01:48:49;29.63;;;15.15;;
39188;SDS011;24915;50.858;4.376;2023-04-24T01:51:16;25.27;;;15.18;;
39188;SDS011;24915;50.858;4.376;2023-04-24T01:53:42;26.17;;;13.98;;
39188;SDS011;24915;50.858;4.376;2023-04-24T01:56:08;26.17;;;14.07;;
39188;SDS011;24915;50.858;4.376;2023-04-24T01:58:35;25.10;;;14.35;;
39188;SDS011;24915;50.858;4.376;2023-04-24T02:01:01;27.20;;;15.30;;
39188;SDS011;24915;50.858;4.376;2023-04-24T02:03:27;28.17;;;16.83;;
39188;SDS011;24915;50.858;4.376;2023-04-24T02:05:53;31.63;;;15.68;;
39188;SDS011;24915;50.858;4.376;2023-04-24T02:08:19;26.52;;;15.55;;
39188;SDS011;24915;50.858;4.376;2023-04-24T02:10:46;27.08;;;15.65;;
39188;SDS011;24915;50.858;4.376;2023-04-24T02:13:12;30.13;;;15.77;;
39188;SDS011;24915;50.858;4.376;2023-04-24T02:15:38;32.58;;;16.50;;
39188;SDS011;24915;50.858;4.376;2023-04-24T02:18:04;34.38;;;16.98;;
39188;SDS011;24915;50.858;4.376;2023-04-24T02:20:31;35.03;;;18.15;;
39188;SDS011;24915;50.858;4.376;2023-04-24T02:22:59;28.05;;;16.92;;
39188;SDS011;24915;50.858;4.376;2023-04-24T02:25:25;27.00;;;17.77;;
39188;SDS011;24915;50.858;4.376;2023-04-24T02:27:51;30.52;;;16.75;;
39188;SDS011;24915;50.858;4.376;2023-04-24T02:30:17;26.63;;;17.38;;
39188;SDS011;24915;50.858;4.376;2023-04-24T02:32:43;27.67;;;16.30;;
39188;SDS011;24915;50.858;4.376;2023-04-24T02:35:10;27.80;;;16.25;;
39188;SDS011;24915;50.858;4.376;2023-04-24T02:37:36;28.27;;;17.13;;
39188;SDS011;24915;50.858;4.376;2023-04-24T02:40:02;33.20;;;18.08;;
39188;SDS011;24915;50.858;4.376;2023-04-24T02:42:28;27.20;;;16.88;;
39188;SDS011;24915;50.858;4.376;2023-04-24T02:44:54;25.40;;;16.92;;
39188;SDS011;24915;50.858;4.376;2023-04-24T02:47:20;34.35;;;17.77;;
39188;SDS011;24915;50.858;4.376;2023-04-24T02:49:46;27.45;;;17.58;;
39188;SDS011;24915;50.858;4.376;2023-04-24T02:52:12;28.55;;;17.80;;
39188;SDS011;24915;50.858;4.376;2023-04-24T02:54:39;27.10;;;15.98;;
39188;SDS011;24915;50.858;4.376;2023-04-24T02:57:05;29.33;;;17.40;;
39188;SDS011;24915;50.858;4.376;2023-04-24T02:59:31;32.85;;;17.50;;
39188;SDS011;24915;50.858;4.376;2023-04-24T03:01:58;28.55;;;17.17;;
39188;SDS011;24915;50.858;4.376;2023-04-24T03:04:24;25.95;;;17.13;;
39188;SDS011;24915;50.858;4.376;2023-04-24T03:06:51;32.47;;;17.85;;
39188;SDS011;24915;50.858;4.376;2023-04-24T03:09:22;25.80;;;16.20;;
39188;SDS011;24915;50.858;4.376;2023-04-24T03:11:49;29.65;;;16.13;;
39188;SDS011;24915;50.858;4.376;2023-04-24T03:14:15;29.60;;;15.38;;
39188;SDS011;24915;50.858;4.376;2023-04-24T03:16:41;21.50;;;14.55;;
39188;SDS011;24915;50.858;4.376;2023-04-24T03:19:07;23.35;;;14.52;;
39188;SDS011;24915;50.858;4.376;2023-04-24T03:21:33;22.83;;;14.57;;
39188;SDS011;24915;50.858;4.376;2023-04-24T03:24:00;32.05;;;15.25;;
39188;SDS011;24915;50.858;4.376;2023-04-24T03:26:27;25.40;;;13.85;;
39188;SDS011;24915;50.858;4.376;2023-04-24T03:28:53;23.40;;;15.40;;
39188;SDS011;24915;50.858;4.376;2023-04-24T03:31:19;20.42;;;14.23;;
39188;SDS011;24915;50.858;4.376;2023-04-24T03:33:46;20.30;;;14.10;;
39188;SDS011;24915;50.858;4.376;2023-04-24T03:36:12;21.70;;;14.18;;
39188;SDS011;24915;50.858;4.376;2023-04-24T03:38:38;22.92;;;13.88;;
39188;SDS011;24915;50.858;4.376;2023-04-24T03:41:04;19.65;;;13.70;;
39188;SDS011;24915;50.858;4.376;2023-04-24T03:43:30;20.75;;;13.55;;
39188;SDS011;24915;50.858;4.376;2023-04-24T03:45:58;20.52;;;13.10;;
39188;SDS011;24915;50.858;4.376;2023-04-24T03:48:24;23.48;;;11.90;;
39188;SDS011;24915;50.858;4.376;2023-04-24T03:50:50;20.25;;;12.35;;
39188;SDS011;24915;50.858;4.376;2023-04-24T03:53:16;16.05;;;11.68;;
39188;SDS011;24915;50.858;4.376;2023-04-24T03:55:42;17.70;;;11.27;;
39188;SDS011;24915;50.858;4.376;2023-04-24T03:58:08;18.83;;;10.77;;
39188;SDS011;24915;50.858;4.376;2023-04-24T04:00:34;15.55;;;10.40;;
39188;SDS011;24915;50.858;4.376;2023-04-24T04:03:02;12.75;;;9.40;;
39188;SDS011;24915;50.858;4.376;2023-04-24T04:05:28;13.85;;;9.75;;
39188;SDS011;24915;50.858;4.376;2023-04-24T04:07:54;13.98;;;9.60;;
39188;SDS011;24915;50.858;4.376;2023-04-24T04:10:21;9.88;;;7.63;;
39188;SDS011;24915;50.858;4.376;2023-04-24T04:12:47;11.40;;;7.80;;
39188;SDS011;24915;50.858;4.376;2023-04-24T04:15:13;11.55;;;8.73;;
39188;SDS011;24915;50.858;4.376;2023-04-24T04:17:39;12.05;;;8.10;;
39188;SDS011;24915;50.858;4.376;2023-04-24T04:20:05;13.48;;;9.68;;
39188;SDS011;24915;50.858;4.376;2023-04-24T04:22:34;11.40;;;7.93;;
39188;SDS011;24915;50.858;4.376;2023-04-24T04:25:00;11.27;;;8.27;;
39188;SDS011;24915;50.858;4.376;2023-04-24T04:27:26;15.10;;;8.38;;
39188;SDS011;24915;50.858;4.376;2023-04-24T04:29:54;12.13;;;7.43;;
39188;SDS011;24915;50.858;4.376;2023-04-24T04:32:21;12.50;;;7.60;;
39188;SDS011;24915;50.858;4.376;2023-04-24T04:34:47;11.20;;;7.95;;
39188;SDS011;24915;50.858;4.376;2023-04-24T04:37:14;9.93;;;8.10;;
39188;SDS011;24915;50.858;4.376;2023-04-24T04:39:40;9.18;;;7.32;;
39188;SDS011;24915;50.858;4.376;2023-04-24T04:42:06;14.65;;;7.50;;
39188;SDS011;24915;50.858;4.376;2023-04-24T04:44:32;13.00;;;7.93;;
39188;SDS011;24915;50.858;4.376;2023-04-24T04:47:01;16.00;;;8.02;;
39188;SDS011;24915;50.858;4.376;2023-04-24T04:49:30;11.20;;;7.82;;
39188;SDS011;24915;50.858;4.376;2023-04-24T04:51:57;10.90;;;8.65;;
39188;SDS011;24915;50.858;4.376;2023-04-24T04:54:23;18.00;;;9.55;;
39188;SDS011;24915;50.858;4.376;2023-04-24T04:56:50;14.88;;;9.32;;
39188;SDS011;24915;50.858;4.376;2023-04-24T04:59:16;13.18;;;10.20;;
39188;SDS011;24915;50.858;4.376;2023-04-24T05:01:42;16.58;;;11.05;;
39188;SDS011;24915;50.858;4.376;2023-04-24T05:04:08;15.40;;;11.88;;
39188;SDS011;24915;50.858;4.376;2023-04-24T05:06:34;18.27;;;11.55;;
39188;SDS011;24915;50.858;4.376;2023-04-24T05:09:00;21.50;;;11.95;;
39188;SDS011;24915;50.858;4.376;2023-04-24T05:11:28;21.20;;;12.52;;
39188;SDS011;24915;50.858;4.376;2023-04-24T05:13:55;26.35;;;13.77;;
39188;SDS011;24915;50.858;4.376;2023-04-24T05:16:21;21.20;;;13.55;;
39188;SDS011;24915;50.858;4.376;2023-04-24T05:18:47;22.65;;;13.63;;
39188;SDS011;24915;50.858;4.376;2023-04-24T05:21:13;20.95;;;13.80;;
39188;SDS011;24915;50.858;4.376;2023-04-24T05:23:39;24.38;;;13.35;;
39188;SDS011;24915;50.858;4.376;2023-04-24T05:26:05;26.73;;;13.77;;
39188;SDS011;24915;50.858;4.376;2023-04-24T05:28:31;24.98;;;13.57;;
39188;SDS011;24915;50.858;4.376;2023-04-24T05:30:57;25.83;;;16.35;;
39188;SDS011;24915;50.858;4.376;2023-04-24T05:33:24;23.27;;;13.43;;
39188;SDS011;24915;50.858;4.376;2023-04-24T05:35:51;21.38;;;13.27;;
39188;SDS011;24915;50.858;4.376;2023-04-24T05:38:17;21.80;;;12.95;;
39188;SDS011;24915;50.858;4.376;2023-04-24T05:40:44;23.45;;;13.18;;
39188;SDS011;24915;50.858;4.376;2023-04-24T05:43:10;24.92;;;13.38;;
39188;SDS011;24915;50.858;4.376;2023-04-24T05:45:37;23.55;;;13.48;;
39188;SDS011;24915;50.858;4.376;2023-04-24T05:48:03;20.60;;;13.32;;
39188;SDS011;24915;50.858;4.376;2023-04-24T05:50:30;27.25;;;14.55;;
39188;SDS011;24915;50.858;4.376;2023-04-24T05:52:56;23.10;;;13.02;;
39188;SDS011;24915;50.858;4.376;2023-04-24T05:55:27;21.77;;;13.40;;
39188;SDS011;24915;50.858;4.376;2023-04-24T05:57:53;21.13;;;13.95;;
39188;SDS011;24915;50.858;4.376;2023-04-24T06:00:20;22.50;;;13.13;;
39188;SDS011;24915;50.858;4.376;2023-04-24T06:02:46;22.10;;;13.48;;
39188;SDS011;24915;50.858;4.376;2023-04-24T06:05:12;26.25;;;14.20;;
39188;SDS011;24915;50.858;4.376;2023-04-24T06:07:39;24.20;;;13.80;;
39188;SDS011;24915;50.858;4.376;2023-04-24T06:10:07;30.13;;;13.80;;
39188;SDS011;24915;50.858;4.376;2023-04-24T06:12:33;28.48;;;15.30;;
39188;SDS011;24915;50.858;4.376;2023-04-24T06:14:59;22.13;;;14.15;;
39188;SDS011;24915;50.858;4.376;2023-04-24T06:17:25;24.20;;;13.80;;
39188;SDS011;24915;50.858;4.376;2023-04-24T06:19:51;29.35;;;14.35;;
39188;SDS011;24915;50.858;4.376;2023-04-24T06:22:17;32.88;;;14.43;;
39188;SDS011;24915;50.858;4.376;2023-04-24T06:24:43;29.05;;;14.05;;
39188;SDS011;24915;50.858;4.376;2023-04-24T06:27:09;27.30;;;14.98;;
39188;SDS011;24915;50.858;4.376;2023-04-24T06:29:35;27.77;;;13.48;;
39188;SDS011;24915;50.858;4.376;2023-04-24T06:32:01;32.75;;;15.10;;
39188;SDS011;24915;50.858;4.376;2023-04-24T06:34:27;30.60;;;15.07;;
39188;SDS011;24915;50.858;4.376;2023-04-24T06:36:55;26.67;;;16.17;;
39188;SDS011;24915;50.858;4.376;2023-04-24T06:39:21;28.20;;;15.43;;
39188;SDS011;24915;50.858;4.376;2023-04-24T06:41:47;34.83;;;17.55;;
39188;SDS011;24915;50.858;4.376;2023-04-24T06:44:13;31.27;;;17.17;;
39188;SDS011;24915;50.858;4.376;2023-04-24T06:46:40;35.60;;;17.88;;
39188;SDS011;24915;50.858;4.376;2023-04-24T06:49:06;42.60;;;21.02;;
39188;SDS011;24915;50.858;4.376;2023-04-24T06:51:32;38.22;;;19.42;;
39188;SDS011;24915;50.858;4.376;2023-04-24T06:53:58;39.33;;;18.42;;
39188;SDS011;24915;50.858;4.376;2023-04-24T06:56:25;47.75;;;19.25;;
39188;SDS011;24915;50.858;4.376;2023-04-24T06:58:51;33.33;;;18.83;;
39188;SDS011;24915;50.858;4.376;2023-04-24T07:01:18;45.78;;;19.98;;
39188;SDS011;24915;50.858;4.376;2023-04-24T07:03:44;29.83;;;18.63;;
39188;SDS011;24915;50.858;4.376;2023-04-24T07:06:10;45.20;;;19.88;;
39188;SDS011;24915;50.858;4.376;2023-04-24T07:08:37;36.70;;;18.48;;
39188;SDS011;24915;50.858;4.376;2023-04-24T07:11:03;34.90;;;18.45;;
39188;SDS011;24915;50.858;4.376;2023-04-24T07:13:29;35.40;;;18.77;;
39188;SDS011;24915;50.858;4.376;2023-04-24T07:15:55;42.50;;;19.30;;
39188;SDS011;24915;50.858;4.376;2023-04-24T07:18:22;39.15;;;18.58;;
39188;SDS011;24915;50.858;4.376;2023-04-24T07:20:48;39.70;;;18.45;;
39188;SDS011;24915;50.858;4.376;2023-04-24T07:23:15;34.88;;;17.63;;
39188;SDS011;24915;50.858;4.376;2023-04-24T07:25:41;29.52;;;16.88;;
39188;SDS011;24915;50.858;4.376;2023-04-24T07:28:07;31.15;;;15.48;;
39188;SDS011;24915;50.858;4.376;2023-04-24T07:30:33;34.10;;;16.25;;
39188;SDS011;24915;50.858;4.376;2023-04-24T07:32:59;27.65;;;14.98;;
39188;SDS011;24915;50.858;4.376;2023-04-24T07:35:26;26.85;;;13.18;;
39188;SDS011;24915;50.858;4.376;2023-04-24T07:37:55;31.55;;;13.65;;
39188;SDS011;24915;50.858;4.376;2023-04-24T07:40:21;27.15;;;13.38;;
39188;SDS011;24915;50.858;4.376;2023-04-24T07:42:48;30.20;;;13.50;;
39188;SDS011;24915;50.858;4.376;2023-04-24T07:45:14;25.33;;;12.20;;
39188;SDS011;24915;50.858;4.376;2023-04-24T07:47:43;25.83;;;12.13;;
39188;SDS011;24915;50.858;4.376;2023-04-24T07:50:10;28.15;;;12.75;;
39188;SDS011;24915;50.858;4.376;2023-04-24T07:52:37;26.30;;;12.57;;
39188;SDS011;24915;50.858;4.376;2023-04-24T07:55:03;27.75;;;13.25;;
39188;SDS011;24915;50.858;4.376;2023-04-24T07:57:30;30.92;;;14.45;;
39188;SDS011;24915;50.858;4.376;2023-04-24T07:59:56;32.28;;;15.70;;
39188;SDS011;24915;50.858;4.376;2023-04-24T08:02:22;32.50;;;15.52;;
39188;SDS011;24915;50.858;4.376;2023-04-24T08:04:54;28.15;;;14.27;;
39188;SDS011;24915;50.858;4.376;2023-04-24T08:07:20;32.15;;;13.38;;
39188;SDS011;24915;50.858;4.376;2023-04-24T08:09:46;30.75;;;14.05;;
39188;SDS011;24915;50.858;4.376;2023-04-24T08:12:12;25.38;;;13.18;;
39188;SDS011;24915;50.858;4.376;2023-04-24T08:14:38;28.45;;;12.48;;
39188;SDS011;24915;50.858;4.376;2023-04-24T08:17:04;32.70;;;12.23;;
39188;SDS011;24915;50.858;4.376;2023-04-24T08:19:30;26.92;;;11.27;;
39188;SDS011;24915;50.858;4.376;2023-04-24T08:21:56;24.63;;;11.43;;
39188;SDS011;24915;50.858;4.376;2023-04-24T08:24:23;24.08;;;10.73;;
39188;SDS011;24915;50.858;4.376;2023-04-24T08:26:49;26.13;;;10.95;;
39188;SDS011;24915;50.858;4.376;2023-04-24T08:29:16;23.58;;;10.48;;
39188;SDS011;24915;50.858;4.376;2023-04-24T08:31:42;25.17;;;10.88;;
39188;SDS011;24915;50.858;4.376;2023-04-24T08:34:09;31.33;;;10.38;;
39188;SDS011;24915;50.858;4.376;2023-04-24T08:36:35;25.85;;;9.95;;
39188;SDS011;24915;50.858;4.376;2023-04-24T08:39:01;18.27;;;8.75;;
39188;SDS011;24915;50.858;4.376;2023-04-24T08:41:27;23.40;;;9.93;;
39188;SDS011;24915;50.858;4.376;2023-04-24T08:43:53;24.00;;;9.82;;
39188;SDS011;24915;50.858;4.376;2023-04-24T08:46:20;17.83;;;8.75;;
39188;SDS011;24915;50.858;4.376;2023-04-24T08:48:46;29.50;;;8.88;;
39188;SDS011;24915;50.858;4.376;2023-04-24T08:51:12;22.90;;;8.70;;
39188;SDS011;24915;50.858;4.376;2023-04-24T08:53:39;20.70;;;8.00;;
39188;SDS011;24915;50.858;4.376;2023-04-24T08:56:05;17.73;;;7.68;;
39188;SDS011;24915;50.858;4.376;2023-04-24T08:58:32;16.90;;;7.18;;
39188;SDS011;24915;50.858;4.376;2023-04-24T09:00:58;19.52;;;7.00;;
39188;SDS011;24915;50.858;4.376;2023-04-24T09:03:26;13.70;;;6.90;;
39188;SDS011;24915;50.858;4.376;2023-04-24T09:05:53;17.30;;;6.82;;
39188;SDS011;24915;50.858;4.376;2023-04-24T09:08:20;18.48;;;7.22;;
39188;SDS011;24915;50.858;4.376;2023-04-24T09:10:49;24.10;;;7.28;;
39188;SDS011;24915;50.858;4.376;2023-04-24T09:13:15;18.83;;;7.30;;
39188;SDS011;24915;50.858;4.376;2023-04-24T09:15:42;19.58;;;7.28;;
39188;SDS011;24915;50.858;4.376;2023-04-24T09:18:08;15.50;;;7.18;;
39188;SDS011;24915;50.858;4.376;2023-04-24T09:20:34;16.70;;;6.18;;
39188;SDS011;24915;50.858;4.376;2023-04-24T09:23:01;15.02;;;5.53;;
39188;SDS011;24915;50.858;4.376;2023-04-24T09:25:33;13.30;;;6.05;;
39188;SDS011;24915;50.858;4.376;2023-04-24T09:28:03;12.00;;;4.88;;
39188;SDS011;24915;50.858;4.376;2023-04-24T09:30:31;16.25;;;5.80;;
39188;SDS011;24915;50.858;4.376;2023-04-24T09:33:10;13.57;;;5.82;;
39188;SDS011;24915;50.858;4.376;2023-04-24T09:35:37;15.88;;;6.30;;
39188;SDS011;24915;50.858;4.376;2023-04-24T09:38:05;13.93;;;5.40;;
39188;SDS011;24915;50.858;4.376;2023-04-24T09:40:31;14.73;;;6.32;;
39188;SDS011;24915;50.858;4.376;2023-04-24T09:43:00;15.32;;;5.90;;
39188;SDS011;24915;50.858;4.376;2023-04-24T09:45:28;12.02;;;5.55;;
39188;SDS011;24915;50.858;4.376;2023-04-24T09:48:00;13.07;;;5.90;;
39188;SDS011;24915;50.858;4.376;2023-04-24T09:50:27;13.38;;;5.72;;
39188;SDS011;24915;50.858;4.376;2023-04-24T09:52:57;12.55;;;5.40;;
39188;SDS011;24915;50.858;4.376;2023-04-24T09:55:23;12.63;;;5.78;;
39188;SDS011;24915;50.858;4.376;2023-04-24T09:57:57;14.13;;;5.10;;
39188;SDS011;24915;50.858;4.376;2023-04-24T10:00:26;10.75;;;5.95;;
39188;SDS011;24915;50.858;4.376;2023-04-24T10:02:56;14.80;;;5.20;;
39188;SDS011;24915;50.858;4.376;2023-04-24T10:05:23;13.90;;;5.10;;
39188;SDS011;24915;50.858;4.376;2023-04-24T10:07:49;14.55;;;5.28;;
39188;SDS011;24915;50.858;4.376;2023-04-24T10:10:15;12.32;;;5.07;;
39188;SDS011;24915;50.858;4.376;2023-04-24T10:12:42;12.85;;;5.63;;
39188;SDS011;24915;50.858;4.376;2023-04-24T10:15:09;12.23;;;5.35;;
39188;SDS011;24915;50.858;4.376;2023-04-24T10:17:37;9.90;;;5.00;;
39188;SDS011;24915;50.858;4.376;2023-04-24T10:20:03;12.82;;;4.78;;
39188;SDS011;24915;50.858;4.376;2023-04-24T10:22:31;13.90;;;5.38;;
39188;SDS011;24915;50.858;4.376;2023-04-24T10:24:58;10.35;;;5.45;;
39188;SDS011;24915;50.858;4.376;2023-04-24T10:27:25;15.07;;;6.43;;
39188;SDS011;24915;50.858;4.376;2023-04-24T10:29:52;12.73;;;6.07;;
39188;SDS011;24915;50.858;4.376;2023-04-24T10:32:19;15.02;;;6.07;;
39188;SDS011;24915;50.858;4.376;2023-04-24T10:34:45;13.60;;;5.28;;
39188;SDS011;24915;50.858;4.376;2023-04-24T10:37:11;17.00;;;5.85;;
39188;SDS011;24915;50.858;4.376;2023-04-24T10:39:38;14.07;;;5.95;;
39188;SDS011;24915;50.858;4.376;2023-04-24T10:42:15;12.93;;;5.78;;
39188;SDS011;24915;50.858;4.376;2023-04-24T10:44:41;11.48;;;6.43;;
39188;SDS011;24915;50.858;4.376;2023-04-24T10:47:12;12.50;;;5.43;;
39188;SDS011;24915;50.858;4.376;2023-04-24T10:49:39;13.93;;;6.82;;
39188;SDS011;24915;50.858;4.376;2023-04-24T10:52:05;17.35;;;5.72;;
39188;SDS011;24915;50.858;4.376;2023-04-24T10:54:35;12.35;;;6.00;;
39188;SDS011;24915;50.858;4.376;2023-04-24T11:02:41;13.20;;;6.40;;
39188;SDS011;24915;50.858;4.376;2023-04-24T11:05:17;14.88;;;5.90;;
39188;SDS011;24915;50.858;4.376;2023-04-24T11:10:28;17.50;;;6.80;;
39188;SDS011;24915;50.858;4.376;2023-04-24T11:12:54;13.48;;;6.38;;
39188;SDS011;24915;50.858;4.376;2023-04-24T11:15:20;16.65;;;7.75;;
39188;SDS011;24915;50.858;4.376;2023-04-24T11:17:46;15.77;;;6.50;;
39188;SDS011;24915;50.858;4.376;2023-04-24T11:20:17;16.92;;;6.13;;
39188;SDS011;24915;50.858;4.376;2023-04-24T11:22:43;15.70;;;7.05;;
39188;SDS011;24915;50.858;4.376;2023-04-24T11:25:09;14.13;;;7.38;;
39188;SDS011;24915;50.858;4.376;2023-04-24T11:27:43;13.68;;;7.18;;
39188;SDS011;24915;50.858;4.376;2023-04-24T11:30:11;11.25;;;6.43;;
39188;SDS011;24915;50.858;4.376;2023-04-24T11:32:38;11.95;;;5.80;;
39188;SDS011;24915;50.858;4.376;2023-04-24T11:35:15;10.32;;;5.80;;
39188;SDS011;24915;50.858;4.376;2023-04-24T11:37:42;12.77;;;5.82;;
39188;SDS011;24915;50.858;4.376;2023-04-24T11:40:10;13.75;;;6.78;;
39188;SDS011;24915;50.858;4.376;2023-04-24T11:42:37;11.00;;;5.68;;
39188;SDS011;24915;50.858;4.376;2023-04-24T11:45:10;10.27;;;5.43;;
39188;SDS011;24915;50.858;4.376;2023-04-24T11:47:36;17.63;;;6.32;;
39188;SDS011;24915;50.858;4.376;2023-04-24T11:50:03;9.98;;;5.95;;
39188;SDS011;24915;50.858;4.376;2023-04-24T11:52:30;9.50;;;6.00;;
39188;SDS011;24915;50.858;4.376;2023-04-24T11:54:56;20.10;;;6.60;;
39188;SDS011;24915;50.858;4.376;2023-04-24T11:57:23;14.25;;;6.97;;
39188;SDS011;24915;50.858;4.376;2023-04-24T11:59:52;13.48;;;7.68;;
39188;SDS011;24915;50.858;4.376;2023-04-24T12:02:25;13.70;;;5.97;;
39188;SDS011;24915;50.858;4.376;2023-04-24T12:04:52;13.80;;;7.47;;
39188;SDS011;24915;50.858;4.376;2023-04-24T12:07:18;9.35;;;5.70;;
39188;SDS011;24915;50.858;4.376;2023-04-24T12:09:48;11.27;;;6.07;;
39188;SDS011;24915;50.858;4.376;2023-04-24T12:12:16;12.48;;;6.88;;
39188;SDS011;24915;50.858;4.376;2023-04-24T12:14:47;14.10;;;6.68;;
39188;SDS011;24915;50.858;4.376;2023-04-24T12:17:13;18.05;;;7.30;;
39188;SDS011;24915;50.858;4.376;2023-04-24T12:19:44;12.00;;;6.53;;
39188;SDS011;24915;50.858;4.376;2023-04-24T12:22:11;9.15;;;6.00;;
39188;SDS011;24915;50.858;4.376;2023-04-24T12:24:54;11.73;;;6.53;;
39188;SDS011;24915;50.858;4.376;2023-04-24T12:27:21;13.00;;;5.63;;
39188;SDS011;24915;50.858;4.376;2023-04-24T12:29:51;11.68;;;6.72;;
39188;SDS011;24915;50.858;4.376;2023-04-24T12:32:18;8.80;;;5.43;;
39188;SDS011;24915;50.858;4.376;2023-04-24T12:34:44;9.77;;;5.35;;
39188;SDS011;24915;50.858;4.376;2023-04-24T12:37:13;11.85;;;5.28;;
39188;SDS011;24915;50.858;4.376;2023-04-24T12:39:42;7.85;;;5.00;;
39188;SDS011;24915;50.858;4.376;2023-04-24T12:42:11;11.27;;;4.85;;
39188;SDS011;24915;50.858;4.376;2023-04-24T12:44:37;8.10;;;4.10;;
39188;SDS011;24915;50.858;4.376;2023-04-24T12:47:03;10.82;;;4.38;;
39188;SDS011;24915;50.858;4.376;2023-04-24T12:49:30;9.00;;;4.93;;
39188;SDS011;24915;50.858;4.376;2023-04-24T12:51:56;7.22;;;4.13;;
39188;SDS011;24915;50.858;4.376;2023-04-24T12:54:22;13.80;;;5.13;;
39188;SDS011;24915;50.858;4.376;2023-04-24T12:56:48;7.38;;;3.97;;
39188;SDS011;24915;50.858;4.376;2023-04-24T12:59:14;7.88;;;4.35;;
39188;SDS011;24915;50.858;4.376;2023-04-24T13:01:41;9.30;;;4.32;;
39188;SDS011;24915;50.858;4.376;2023-04-24T13:04:07;14.32;;;4.50;;
39188;SDS011;24915;50.858;4.376;2023-04-24T13:06:33;15.43;;;5.30;;
39188;SDS011;24915;50.858;4.376;2023-04-24T13:08:59;15.18;;;5.00;;
39188;SDS011;24915;50.858;4.376;2023-04-24T13:11:25;6.22;;;3.75;;
39188;SDS011;24915;50.858;4.376;2023-04-24T13:13:51;10.38;;;4.30;;
39188;SDS011;24915;50.858;4.376;2023-04-24T13:16:17;23.17;;;4.95;;
39188;SDS011;24915;50.858;4.376;2023-04-24T13:18:43;18.08;;;5.72;;
39188;SDS011;24915;50.858;4.376;2023-04-24T13:21:09;12.52;;;4.05;;
39188;SDS011;24915;50.858;4.376;2023-04-24T13:23:35;15.82;;;4.43;;
39188;SDS011;24915;50.858;4.376;2023-04-24T13:26:02;7.45;;;3.40;;
39188;SDS011;24915;50.858;4.376;2023-04-24T13:28:28;6.65;;;3.72;;
39188;SDS011;24915;50.858;4.376;2023-04-24T13:30:55;10.00;;;4.35;;
39188;SDS011;24915;50.858;4.376;2023-04-24T13:33:21;12.75;;;4.95;;
39188;SDS011;24915;50.858;4.376;2023-04-24T13:35:47;11.18;;;4.43;;
39188;SDS011;24915;50.858;4.376;2023-04-24T13:38:13;6.25;;;3.70;;
39188;SDS011;24915;50.858;4.376;2023-04-24T13:40:40;8.00;;;3.78;;
39188;SDS011;24915;50.858;4.376;2023-04-24T13:43:10;8.55;;;3.10;;
39188;SDS011;24915;50.858;4.376;2023-04-24T13:45:36;8.02;;;3.40;;
39188;SDS011;24915;50.858;4.376;2023-04-24T13:48:02;15.20;;;3.60;;
39188;SDS011;24915;50.858;4.376;2023-04-24T13:50:29;11.25;;;4.22;;
39188;SDS011;24915;50.858;4.376;2023-04-24T13:52:55;11.10;;;4.35;;
39188;SDS011;24915;50.858;4.376;2023-04-24T13:55:21;8.40;;;5.30;;
39188;SDS011;24915;50.858;4.376;2023-04-24T13:57:48;8.50;;;4.25;;
39188;SDS011;24915;50.858;4.376;2023-04-24T14:00:14;8.93;;;3.50;;
39188;SDS011;24915;50.858;4.376;2023-04-24T14:02:40;7.55;;;3.63;;
39188;SDS011;24915;50.858;4.376;2023-04-24T14:05:06;6.88;;;3.28;;
39188;SDS011;24915;50.858;4.376;2023-04-24T14:07:33;5.90;;;2.92;;
39188;SDS011;24915;50.858;4.376;2023-04-24T14:09:59;7.88;;;3.97;;
39188;SDS011;24915;50.858;4.376;2023-04-24T14:12:25;7.45;;;4.07;;
39188;SDS011;24915;50.858;4.376;2023-04-24T14:14:52;8.38;;;3.80;;
39188;SDS011;24915;50.858;4.376;2023-04-24T14:17:18;7.78;;;2.90;;
39188;SDS011;24915;50.858;4.376;2023-04-24T14:19:44;12.63;;;3.80;;
39188;SDS011;24915;50.858;4.376;2023-04-24T14:22:10;22.35;;;4.05;;
39188;SDS011;24915;50.858;4.376;2023-04-24T14:24:36;24.30;;;3.65;;
39188;SDS011;24915;50.858;4.376;2023-04-24T14:27:02;20.70;;;4.25;;
39188;SDS011;24915;50.858;4.376;2023-04-24T14:29:28;13.93;;;3.53;;
39188;SDS011;24915;50.858;4.376;2023-04-24T14:31:54;9.18;;;3.10;;
39188;SDS011;24915;50.858;4.376;2023-04-24T14:34:20;11.90;;;3.65;;